sensor_id;sensor_type;location;lat;lon;timestamp;P1;durP1;ratioP1;P2;durP2;ratioP2
73454;SDS011;61690;51.824;6.306;2022-09-09T00:00:26;4.38;;;0.90;;
73454;SDS011;61690;51.824;6.306;2022-09-09T00:05:41;2.97;;;0.80;;
73454;SDS011;61690;51.824;6.306;2022-09-09T00:08:18;3.40;;;0.90;;
73454;SDS011;61690;51.824;6.306;2022-09-09T00:10:48;3.28;;;0.90;;
73454;SDS011;61690;51.824;6.306;2022-09-09T00:13:29;3.20;;;0.75;;
73454;SDS011;61690;51.824;6.306;2022-09-09T00:21:39;2.80;;;0.70;;
73454;SDS011;61690;51.824;6.306;2022-09-09T00:24:32;4.72;;;1.10;;
73454;SDS011;61690;51.824;6.306;2022-09-09T00:27:02;3.25;;;0.80;;
73454;SDS011;61690;51.824;6.306;2022-09-09T00:29:35;3.17;;;0.70;;
73454;SDS011;61690;51.824;6.306;2022-09-09T00:32:15;3.43;;;0.90;;
73454;SDS011;61690;51.824;6.306;2022-09-09T00:34:48;2.75;;;0.70;;
73454;SDS011;61690;51.824;6.306;2022-09-09T00:37:13;3.30;;;0.88;;
73454;SDS011;61690;51.824;6.306;2022-09-09T00:39:44;2.75;;;0.75;;
73454;SDS011;61690;51.824;6.306;2022-09-09T00:44:52;3.47;;;0.90;;
73454;SDS011;61690;51.824;6.306;2022-09-09T00:47:43;3.15;;;0.80;;
73454;SDS011;61690;51.824;6.306;2022-09-09T00:58:36;3.67;;;0.90;;
73454;SDS011;61690;51.824;6.306;2022-09-09T01:01:07;3.13;;;0.60;;
73454;SDS011;61690;51.824;6.306;2022-09-09T01:03:37;2.42;;;0.73;;
73454;SDS011;61690;51.824;6.306;2022-09-09T01:09:02;2.70;;;0.70;;
73454;SDS011;61690;51.824;6.306;2022-09-09T01:19:55;2.87;;;0.90;;
73454;SDS011;61690;51.824;6.306;2022-09-09T01:28:08;2.95;;;0.70;;
73454;SDS011;61690;51.824;6.306;2022-09-09T01:30:39;2.95;;;0.70;;
73454;SDS011;61690;51.824;6.306;2022-09-09T01:33:07;3.10;;;0.90;;
73454;SDS011;61690;51.824;6.306;2022-09-09T01:38:41;2.60;;;0.80;;
73454;SDS011;61690;51.824;6.306;2022-09-09T01:41:07;3.13;;;0.50;;
73454;SDS011;61690;51.824;6.306;2022-09-09T01:43:32;3.93;;;0.87;;
73454;SDS011;61690;51.824;6.306;2022-09-09T01:45:58;2.67;;;0.70;;
73454;SDS011;61690;51.824;6.306;2022-09-09T01:48:25;3.17;;;0.80;;
73454;SDS011;61690;51.824;6.306;2022-09-09T01:50:52;3.03;;;0.90;;
73454;SDS011;61690;51.824;6.306;2022-09-09T01:53:18;2.70;;;0.82;;
73454;SDS011;61690;51.824;6.306;2022-09-09T01:59:11;3.20;;;1.05;;
73454;SDS011;61690;51.824;6.306;2022-09-09T02:04:41;3.30;;;0.82;;
73454;SDS011;61690;51.824;6.306;2022-09-09T02:09:47;3.00;;;0.70;;
73454;SDS011;61690;51.824;6.306;2022-09-09T02:12:20;3.50;;;0.80;;
73454;SDS011;61690;51.824;6.306;2022-09-09T02:14:50;3.20;;;0.80;;
73454;SDS011;61690;51.824;6.306;2022-09-09T02:17:28;2.70;;;0.90;;
73454;SDS011;61690;51.824;6.306;2022-09-09T02:20:03;2.95;;;0.90;;
73454;SDS011;61690;51.824;6.306;2022-09-09T02:22:33;3.03;;;1.00;;
73454;SDS011;61690;51.824;6.306;2022-09-09T02:25:00;2.90;;;0.88;;
73454;SDS011;61690;51.824;6.306;2022-09-09T02:27:28;3.83;;;1.00;;
73454;SDS011;61690;51.824;6.306;2022-09-09T02:29:54;2.70;;;0.60;;
73454;SDS011;61690;51.824;6.306;2022-09-09T02:32:25;2.83;;;0.80;;
73454;SDS011;61690;51.824;6.306;2022-09-09T02:34:54;2.43;;;0.70;;
73454;SDS011;61690;51.824;6.306;2022-09-09T02:37:25;3.27;;;0.80;;
73454;SDS011;61690;51.824;6.306;2022-09-09T02:39:55;2.42;;;0.65;;
73454;SDS011;61690;51.824;6.306;2022-09-09T02:42:20;3.13;;;0.80;;
73454;SDS011;61690;51.824;6.306;2022-09-09T02:44:46;2.92;;;0.90;;
73454;SDS011;61690;51.824;6.306;2022-09-09T02:47:17;3.20;;;0.80;;
73454;SDS011;61690;51.824;6.306;2022-09-09T02:52:20;4.00;;;0.85;;
73454;SDS011;61690;51.824;6.306;2022-09-09T02:55:05;2.87;;;0.70;;
73454;SDS011;61690;51.824;6.306;2022-09-09T02:57:37;2.53;;;0.70;;
73454;SDS011;61690;51.824;6.306;2022-09-09T03:00:04;3.00;;;0.90;;
73454;SDS011;61690;51.824;6.306;2022-09-09T03:02:30;2.53;;;0.70;;
73454;SDS011;61690;51.824;6.306;2022-09-09T03:04:55;2.67;;;0.80;;
73454;SDS011;61690;51.824;6.306;2022-09-09T03:07:21;2.80;;;0.70;;
73454;SDS011;61690;51.824;6.306;2022-09-09T03:09:47;3.80;;;1.00;;
73454;SDS011;61690;51.824;6.306;2022-09-09T03:12:12;2.70;;;0.87;;
73454;SDS011;61690;51.824;6.306;2022-09-09T03:14:38;2.93;;;0.80;;
73454;SDS011;61690;51.824;6.306;2022-09-09T03:17:04;2.50;;;0.70;;
73454;SDS011;61690;51.824;6.306;2022-09-09T03:19:30;3.00;;;0.80;;
73454;SDS011;61690;51.824;6.306;2022-09-09T03:21:56;2.10;;;0.50;;
73454;SDS011;61690;51.824;6.306;2022-09-09T03:24:22;3.05;;;0.93;;
73454;SDS011;61690;51.824;6.306;2022-09-09T03:26:47;3.87;;;0.93;;
73454;SDS011;61690;51.824;6.306;2022-09-09T03:29:13;3.85;;;0.80;;
73454;SDS011;61690;51.824;6.306;2022-09-09T03:31:39;2.95;;;0.80;;
73454;SDS011;61690;51.824;6.306;2022-09-09T03:34:05;3.43;;;0.60;;
73454;SDS011;61690;51.824;6.306;2022-09-09T03:36:30;2.93;;;0.80;;
73454;SDS011;61690;51.824;6.306;2022-09-09T03:38:57;3.00;;;0.70;;
73454;SDS011;61690;51.824;6.306;2022-09-09T03:41:23;2.47;;;0.60;;
73454;SDS011;61690;51.824;6.306;2022-09-09T03:43:50;2.50;;;0.70;;
73454;SDS011;61690;51.824;6.306;2022-09-09T03:46:16;3.00;;;0.80;;
73454;SDS011;61690;51.824;6.306;2022-09-09T03:48:42;2.75;;;0.80;;
73454;SDS011;61690;51.824;6.306;2022-09-09T03:51:07;2.40;;;0.63;;
73454;SDS011;61690;51.824;6.306;2022-09-09T03:53:32;3.00;;;0.90;;
73454;SDS011;61690;51.824;6.306;2022-09-09T03:55:58;2.50;;;0.70;;
73454;SDS011;61690;51.824;6.306;2022-09-09T03:58:25;2.70;;;0.85;;
73454;SDS011;61690;51.824;6.306;2022-09-09T04:00:58;3.03;;;1.05;;
73454;SDS011;61690;51.824;6.306;2022-09-09T04:03:34;3.88;;;0.90;;
73454;SDS011;61690;51.824;6.306;2022-09-09T04:06:00;3.67;;;0.90;;
73454;SDS011;61690;51.824;6.306;2022-09-09T04:08:27;2.70;;;0.70;;
73454;SDS011;61690;51.824;6.306;2022-09-09T04:10:53;2.80;;;0.77;;
73454;SDS011;61690;51.824;6.306;2022-09-09T04:13:22;3.47;;;0.80;;
73454;SDS011;61690;51.824;6.306;2022-09-09T04:15:51;3.30;;;0.80;;
73454;SDS011;61690;51.824;6.306;2022-09-09T04:18:20;2.90;;;0.90;;
73454;SDS011;61690;51.824;6.306;2022-09-09T04:20:50;3.22;;;0.65;;
73454;SDS011;61690;51.824;6.306;2022-09-09T04:23:16;3.05;;;1.00;;
73454;SDS011;61690;51.824;6.306;2022-09-09T04:25:51;2.92;;;0.95;;
73454;SDS011;61690;51.824;6.306;2022-09-09T04:28:18;13.60;;;1.10;;
73454;SDS011;61690;51.824;6.306;2022-09-09T04:30:45;3.88;;;0.60;;
73454;SDS011;61690;51.824;6.306;2022-09-09T04:33:11;4.50;;;0.80;;
73454;SDS011;61690;51.824;6.306;2022-09-09T04:35:37;4.55;;;0.90;;
73454;SDS011;61690;51.824;6.306;2022-09-09T04:38:03;3.67;;;0.70;;
73454;SDS011;61690;51.824;6.306;2022-09-09T04:40:30;3.20;;;0.77;;
73454;SDS011;61690;51.824;6.306;2022-09-09T04:43:00;3.58;;;0.90;;
73454;SDS011;61690;51.824;6.306;2022-09-09T04:45:26;7.05;;;1.00;;
73454;SDS011;61690;51.824;6.306;2022-09-09T04:47:52;5.60;;;0.77;;
73454;SDS011;61690;51.824;6.306;2022-09-09T04:50:19;5.90;;;1.00;;
73454;SDS011;61690;51.824;6.306;2022-09-09T04:52:45;8.00;;;1.00;;
73454;SDS011;61690;51.824;6.306;2022-09-09T04:55:10;4.70;;;0.90;;
73454;SDS011;61690;51.824;6.306;2022-09-09T04:57:37;5.47;;;0.95;;
73454;SDS011;61690;51.824;6.306;2022-09-09T05:00:03;6.20;;;0.93;;
73454;SDS011;61690;51.824;6.306;2022-09-09T05:02:29;6.30;;;0.95;;
73454;SDS011;61690;51.824;6.306;2022-09-09T05:04:55;5.05;;;1.10;;
73454;SDS011;61690;51.824;6.306;2022-09-09T05:07:21;5.80;;;0.97;;
73454;SDS011;61690;51.824;6.306;2022-09-09T05:09:46;7.43;;;1.30;;
73454;SDS011;61690;51.824;6.306;2022-09-09T05:12:13;6.53;;;0.83;;
73454;SDS011;61690;51.824;6.306;2022-09-09T05:14:38;5.77;;;1.10;;
73454;SDS011;61690;51.824;6.306;2022-09-09T05:17:03;4.82;;;1.20;;
73454;SDS011;61690;51.824;6.306;2022-09-09T05:19:29;7.03;;;1.40;;
73454;SDS011;61690;51.824;6.306;2022-09-09T05:21:55;4.85;;;1.50;;
73454;SDS011;61690;51.824;6.306;2022-09-09T05:24:20;6.17;;;1.40;;
73454;SDS011;61690;51.824;6.306;2022-09-09T05:26:48;7.88;;;1.38;;
73454;SDS011;61690;51.824;6.306;2022-09-09T05:29:13;5.40;;;1.83;;
73454;SDS011;61690;51.824;6.306;2022-09-09T05:31:38;5.87;;;1.37;;
73454;SDS011;61690;51.824;6.306;2022-09-09T05:34:04;5.00;;;1.10;;
73454;SDS011;61690;51.824;6.306;2022-09-09T05:36:29;5.60;;;1.30;;
73454;SDS011;61690;51.824;6.306;2022-09-09T05:38:54;6.13;;;1.00;;
73454;SDS011;61690;51.824;6.306;2022-09-09T05:41:20;5.67;;;1.10;;
73454;SDS011;61690;51.824;6.306;2022-09-09T05:43:46;5.97;;;1.30;;
73454;SDS011;61690;51.824;6.306;2022-09-09T05:46:15;6.85;;;0.93;;
73454;SDS011;61690;51.824;6.306;2022-09-09T05:48:43;7.32;;;1.30;;
73454;SDS011;61690;51.824;6.306;2022-09-09T05:51:13;6.65;;;1.10;;
73454;SDS011;61690;51.824;6.306;2022-09-09T05:53:41;9.03;;;1.13;;
73454;SDS011;61690;51.824;6.306;2022-09-09T05:56:08;5.40;;;1.08;;
73454;SDS011;61690;51.824;6.306;2022-09-09T05:58:39;4.60;;;1.10;;
73454;SDS011;61690;51.824;6.306;2022-09-09T06:01:06;6.40;;;1.10;;
73454;SDS011;61690;51.824;6.306;2022-09-09T06:03:36;5.77;;;1.30;;
73454;SDS011;61690;51.824;6.306;2022-09-09T06:06:05;6.68;;;1.35;;
73454;SDS011;61690;51.824;6.306;2022-09-09T06:08:35;7.47;;;1.60;;
73454;SDS011;61690;51.824;6.306;2022-09-09T06:11:04;6.10;;;1.17;;
73454;SDS011;61690;51.824;6.306;2022-09-09T06:13:31;11.70;;;1.30;;
73454;SDS011;61690;51.824;6.306;2022-09-09T06:15:56;12.07;;;1.53;;
73454;SDS011;61690;51.824;6.306;2022-09-09T06:18:23;13.65;;;1.33;;
73454;SDS011;61690;51.824;6.306;2022-09-09T06:20:58;6.63;;;1.80;;
73454;SDS011;61690;51.824;6.306;2022-09-09T06:23:31;6.78;;;1.40;;
73454;SDS011;61690;51.824;6.306;2022-09-09T06:26:01;9.20;;;1.40;;
73454;SDS011;61690;51.824;6.306;2022-09-09T06:28:27;5.25;;;1.40;;
73454;SDS011;61690;51.824;6.306;2022-09-09T06:30:59;6.53;;;1.30;;
73454;SDS011;61690;51.824;6.306;2022-09-09T06:33:41;5.70;;;1.23;;
73454;SDS011;61690;51.824;6.306;2022-09-09T06:36:11;5.40;;;1.30;;
73454;SDS011;61690;51.824;6.306;2022-09-09T06:38:38;6.63;;;1.52;;
73454;SDS011;61690;51.824;6.306;2022-09-09T06:41:03;6.13;;;1.33;;
73454;SDS011;61690;51.824;6.306;2022-09-09T06:43:30;7.30;;;1.60;;
73454;SDS011;61690;51.824;6.306;2022-09-09T06:45:57;5.63;;;1.40;;
73454;SDS011;61690;51.824;6.306;2022-09-09T06:48:27;4.63;;;1.40;;
73454;SDS011;61690;51.824;6.306;2022-09-09T06:51:00;5.15;;;1.35;;
73454;SDS011;61690;51.824;6.306;2022-09-09T06:53:33;6.80;;;1.33;;
73454;SDS011;61690;51.824;6.306;2022-09-09T06:56:00;6.47;;;1.45;;
73454;SDS011;61690;51.824;6.306;2022-09-09T06:58:35;7.45;;;1.60;;
73454;SDS011;61690;51.824;6.306;2022-09-09T07:01:10;6.00;;;1.43;;
73454;SDS011;61690;51.824;6.306;2022-09-09T07:03:40;8.65;;;1.50;;
73454;SDS011;61690;51.824;6.306;2022-09-09T07:06:08;5.63;;;1.20;;
73454;SDS011;61690;51.824;6.306;2022-09-09T07:08:39;4.63;;;1.40;;
73454;SDS011;61690;51.824;6.306;2022-09-09T07:11:06;6.40;;;1.47;;
73454;SDS011;61690;51.824;6.306;2022-09-09T07:13:32;4.97;;;1.30;;
73454;SDS011;61690;51.824;6.306;2022-09-09T07:18:31;5.60;;;1.10;;
73454;SDS011;61690;51.824;6.306;2022-09-09T07:20:56;7.00;;;1.50;;
73454;SDS011;61690;51.824;6.306;2022-09-09T07:23:23;5.05;;;1.35;;
73454;SDS011;61690;51.824;6.306;2022-09-09T07:25:49;5.93;;;1.40;;
73454;SDS011;61690;51.824;6.306;2022-09-09T07:28:15;4.97;;;1.20;;
73454;SDS011;61690;51.824;6.306;2022-09-09T07:30:40;5.80;;;1.20;;
73454;SDS011;61690;51.824;6.306;2022-09-09T07:33:06;6.07;;;1.30;;
73454;SDS011;61690;51.824;6.306;2022-09-09T07:35:31;4.32;;;1.20;;
73454;SDS011;61690;51.824;6.306;2022-09-09T07:37:57;7.03;;;1.30;;
73454;SDS011;61690;51.824;6.306;2022-09-09T07:40:23;5.88;;;1.55;;
73454;SDS011;61690;51.824;6.306;2022-09-09T07:42:49;4.53;;;1.33;;
73454;SDS011;61690;51.824;6.306;2022-09-09T07:45:14;4.38;;;1.10;;
73454;SDS011;61690;51.824;6.306;2022-09-09T07:47:39;4.30;;;1.30;;
73454;SDS011;61690;51.824;6.306;2022-09-09T07:50:07;5.50;;;1.40;;
73454;SDS011;61690;51.824;6.306;2022-09-09T07:52:34;5.57;;;1.33;;
73454;SDS011;61690;51.824;6.306;2022-09-09T07:54:59;4.13;;;1.10;;
73454;SDS011;61690;51.824;6.306;2022-09-09T07:57:27;5.07;;;1.50;;
73454;SDS011;61690;51.824;6.306;2022-09-09T07:59:52;5.88;;;1.58;;
73454;SDS011;61690;51.824;6.306;2022-09-09T08:02:18;11.77;;;1.20;;
73454;SDS011;61690;51.824;6.306;2022-09-09T08:04:43;4.50;;;1.30;;
73454;SDS011;61690;51.824;6.306;2022-09-09T08:07:08;7.03;;;1.37;;
73454;SDS011;61690;51.824;6.306;2022-09-09T08:09:34;6.03;;;1.50;;
73454;SDS011;61690;51.824;6.306;2022-09-09T08:12:00;9.33;;;1.50;;
73454;SDS011;61690;51.824;6.306;2022-09-09T08:14:26;9.18;;;1.40;;
73454;SDS011;61690;51.824;6.306;2022-09-09T08:16:51;10.50;;;1.50;;
73454;SDS011;61690;51.824;6.306;2022-09-09T08:19:18;14.00;;;1.73;;
73454;SDS011;61690;51.824;6.306;2022-09-09T08:21:44;8.33;;;1.70;;
73454;SDS011;61690;51.824;6.306;2022-09-09T08:24:10;8.50;;;1.90;;
73454;SDS011;61690;51.824;6.306;2022-09-09T08:26:41;6.72;;;1.42;;
73454;SDS011;61690;51.824;6.306;2022-09-09T08:29:11;7.22;;;1.85;;
73454;SDS011;61690;51.824;6.306;2022-09-09T08:31:40;9.43;;;2.00;;
73454;SDS011;61690;51.824;6.306;2022-09-09T08:34:09;8.35;;;1.67;;
73454;SDS011;61690;51.824;6.306;2022-09-09T08:36:39;6.05;;;1.40;;
73454;SDS011;61690;51.824;6.306;2022-09-09T08:39:07;7.13;;;1.40;;
73454;SDS011;61690;51.824;6.306;2022-09-09T08:55:46;7.30;;;1.55;;
73454;SDS011;61690;51.824;6.306;2022-09-09T08:58:14;8.50;;;1.60;;
73454;SDS011;61690;51.824;6.306;2022-09-09T09:00:45;7.15;;;1.50;;
73454;SDS011;61690;51.824;6.306;2022-09-09T09:03:24;5.82;;;1.60;;
73454;SDS011;61690;51.824;6.306;2022-09-09T09:08:26;7.78;;;1.70;;
73454;SDS011;61690;51.824;6.306;2022-09-09T09:11:09;7.20;;;1.60;;
73454;SDS011;61690;51.824;6.306;2022-09-09T09:13:43;7.50;;;1.60;;
73454;SDS011;61690;51.824;6.306;2022-09-09T09:19:08;6.55;;;1.50;;
73454;SDS011;61690;51.824;6.306;2022-09-09T09:21:41;4.97;;;1.40;;
73454;SDS011;61690;51.824;6.306;2022-09-09T09:26:51;6.00;;;1.50;;
73454;SDS011;61690;51.824;6.306;2022-09-09T09:29:18;6.53;;;1.50;;
73454;SDS011;61690;51.824;6.306;2022-09-09T09:31:51;7.82;;;1.60;;
73454;SDS011;61690;51.824;6.306;2022-09-09T09:34:21;5.72;;;1.40;;
73454;SDS011;61690;51.824;6.306;2022-09-09T09:36:55;6.18;;;1.67;;
73454;SDS011;61690;51.824;6.306;2022-09-09T09:39:29;8.30;;;1.55;;
73454;SDS011;61690;51.824;6.306;2022-09-09T09:41:56;6.53;;;1.50;;
73454;SDS011;61690;51.824;6.306;2022-09-09T09:47:08;9.60;;;1.80;;
73454;SDS011;61690;51.824;6.306;2022-09-09T09:49:37;6.93;;;1.83;;
73454;SDS011;61690;51.824;6.306;2022-09-09T09:52:03;10.10;;;1.73;;
73454;SDS011;61690;51.824;6.306;2022-09-09T09:54:30;10.48;;;2.13;;
73454;SDS011;61690;51.824;6.306;2022-09-09T09:57:09;5.57;;;1.50;;
73454;SDS011;61690;51.824;6.306;2022-09-09T09:59:39;6.20;;;1.52;;
73454;SDS011;61690;51.824;6.306;2022-09-09T10:02:31;7.43;;;1.60;;
73454;SDS011;61690;51.824;6.306;2022-09-09T10:05:03;9.02;;;1.55;;
73454;SDS011;61690;51.824;6.306;2022-09-09T10:07:31;8.85;;;1.67;;
73454;SDS011;61690;51.824;6.306;2022-09-09T10:09:57;5.07;;;1.40;;
73454;SDS011;61690;51.824;6.306;2022-09-09T10:21:06;5.70;;;1.25;;
73454;SDS011;61690;51.824;6.306;2022-09-09T10:26:42;6.47;;;1.20;;
73454;SDS011;61690;51.824;6.306;2022-09-09T10:32:47;6.38;;;1.50;;
73454;SDS011;61690;51.824;6.306;2022-09-09T10:38:17;5.75;;;1.23;;
73454;SDS011;61690;51.824;6.306;2022-09-09T10:57:59;6.32;;;1.40;;
73454;SDS011;61690;51.824;6.306;2022-09-09T11:00:44;7.18;;;1.40;;
73454;SDS011;61690;51.824;6.306;2022-09-09T11:03:18;5.47;;;1.00;;
73454;SDS011;61690;51.824;6.306;2022-09-09T11:05:52;7.30;;;1.55;;
73454;SDS011;61690;51.824;6.306;2022-09-09T11:08:22;5.60;;;1.47;;
73454;SDS011;61690;51.824;6.306;2022-09-09T11:13:57;6.10;;;1.58;;
73454;SDS011;61690;51.824;6.306;2022-09-09T11:16:34;7.15;;;1.60;;
73454;SDS011;61690;51.824;6.306;2022-09-09T11:21:45;9.00;;;1.20;;
73454;SDS011;61690;51.824;6.306;2022-09-09T11:26:55;6.30;;;1.35;;
73454;SDS011;61690;51.824;6.306;2022-09-09T11:32:39;7.05;;;2.35;;
73454;SDS011;61690;51.824;6.306;2022-09-09T11:41:12;9.32;;;3.40;;
73454;SDS011;61690;51.824;6.306;2022-09-09T11:43:41;9.38;;;2.97;;
73454;SDS011;61690;51.824;6.306;2022-09-09T11:46:08;13.30;;;3.20;;
73454;SDS011;61690;51.824;6.306;2022-09-09T11:48:39;9.83;;;2.83;;
73454;SDS011;61690;51.824;6.306;2022-09-09T11:53:55;9.65;;;2.33;;
73454;SDS011;61690;51.824;6.306;2022-09-09T11:59:01;8.52;;;3.15;;
73454;SDS011;61690;51.824;6.306;2022-09-09T12:04:04;7.15;;;2.67;;
73454;SDS011;61690;51.824;6.306;2022-09-09T12:06:41;7.57;;;2.58;;
73454;SDS011;61690;51.824;6.306;2022-09-09T12:09:20;7.13;;;2.40;;
73454;SDS011;61690;51.824;6.306;2022-09-09T12:14:43;7.17;;;2.70;;
73454;SDS011;61690;51.824;6.306;2022-09-09T12:17:20;7.35;;;2.50;;
73454;SDS011;61690;51.824;6.306;2022-09-09T12:19:48;8.45;;;2.38;;
73454;SDS011;61690;51.824;6.306;2022-09-09T12:22:37;7.70;;;2.80;;
73454;SDS011;61690;51.824;6.306;2022-09-09T12:33:17;7.95;;;2.90;;
73454;SDS011;61690;51.824;6.306;2022-09-09T12:35:44;8.93;;;2.28;;
73454;SDS011;61690;51.824;6.306;2022-09-09T12:38:16;9.73;;;2.75;;
73454;SDS011;61690;51.824;6.306;2022-09-09T12:40:55;6.83;;;2.40;;
73454;SDS011;61690;51.824;6.306;2022-09-09T12:43:23;8.30;;;2.20;;
73454;SDS011;61690;51.824;6.306;2022-09-09T12:45:50;10.27;;;2.58;;
73454;SDS011;61690;51.824;6.306;2022-09-09T12:48:22;8.50;;;2.38;;
73454;SDS011;61690;51.824;6.306;2022-09-09T12:50:55;7.10;;;2.13;;
73454;SDS011;61690;51.824;6.306;2022-09-09T12:53:36;8.70;;;2.30;;
73454;SDS011;61690;51.824;6.306;2022-09-09T12:58:33;7.03;;;2.30;;
73454;SDS011;61690;51.824;6.306;2022-09-09T13:01:00;9.32;;;2.20;;
73454;SDS011;61690;51.824;6.306;2022-09-09T13:03:26;6.70;;;2.30;;
73454;SDS011;61690;51.824;6.306;2022-09-09T13:05:52;7.70;;;1.90;;
73454;SDS011;61690;51.824;6.306;2022-09-09T13:08:19;7.75;;;2.08;;
73454;SDS011;61690;51.824;6.306;2022-09-09T13:10:51;6.28;;;2.10;;
73454;SDS011;61690;51.824;6.306;2022-09-09T13:13:22;8.55;;;2.50;;
73454;SDS011;61690;51.824;6.306;2022-09-09T13:15:55;7.28;;;1.65;;
73454;SDS011;61690;51.824;6.306;2022-09-09T13:18:23;6.30;;;1.80;;
73454;SDS011;61690;51.824;6.306;2022-09-09T13:20:53;7.13;;;1.80;;
73454;SDS011;61690;51.824;6.306;2022-09-09T13:23:20;5.65;;;1.90;;
73454;SDS011;61690;51.824;6.306;2022-09-09T13:25:56;7.43;;;1.70;;
73454;SDS011;61690;51.824;6.306;2022-09-09T13:28:25;12.63;;;2.10;;
73454;SDS011;61690;51.824;6.306;2022-09-09T13:30:55;8.07;;;1.87;;
73454;SDS011;61690;51.824;6.306;2022-09-09T13:33:28;8.57;;;2.15;;
73454;SDS011;61690;51.824;6.306;2022-09-09T13:35:59;7.13;;;2.20;;
73454;SDS011;61690;51.824;6.306;2022-09-09T13:38:31;5.47;;;1.73;;
73454;SDS011;61690;51.824;6.306;2022-09-09T13:41:01;10.63;;;1.80;;
73454;SDS011;61690;51.824;6.306;2022-09-09T13:43:34;8.13;;;1.83;;
73454;SDS011;61690;51.824;6.306;2022-09-09T13:48:57;7.18;;;1.70;;
73454;SDS011;61690;51.824;6.306;2022-09-09T13:53:59;7.63;;;1.50;;
73454;SDS011;61690;51.824;6.306;2022-09-09T13:56:25;6.47;;;1.50;;
73454;SDS011;61690;51.824;6.306;2022-09-09T13:58:51;4.80;;;1.45;;
73454;SDS011;61690;51.824;6.306;2022-09-09T14:01:16;7.03;;;1.10;;
73454;SDS011;61690;51.824;6.306;2022-09-09T14:03:41;5.13;;;1.30;;
73454;SDS011;61690;51.824;6.306;2022-09-09T14:06:07;6.07;;;1.30;;
73454;SDS011;61690;51.824;6.306;2022-09-09T14:08:32;5.73;;;1.37;;
73454;SDS011;61690;51.824;6.306;2022-09-09T14:11:02;8.52;;;1.40;;
73454;SDS011;61690;51.824;6.306;2022-09-09T14:13:29;6.93;;;1.43;;
73454;SDS011;61690;51.824;6.306;2022-09-09T14:15:54;3.95;;;1.00;;
73454;SDS011;61690;51.824;6.306;2022-09-09T14:18:19;6.93;;;1.30;;
73454;SDS011;61690;51.824;6.306;2022-09-09T14:20:47;5.57;;;1.02;;
73454;SDS011;61690;51.824;6.306;2022-09-09T14:23:13;5.93;;;1.20;;
73454;SDS011;61690;51.824;6.306;2022-09-09T14:25:41;6.30;;;1.10;;
73454;SDS011;61690;51.824;6.306;2022-09-09T14:28:10;5.03;;;1.15;;
73454;SDS011;61690;51.824;6.306;2022-09-09T14:30:38;7.82;;;1.00;;
73454;SDS011;61690;51.824;6.306;2022-09-09T14:33:04;5.00;;;1.25;;
73454;SDS011;61690;51.824;6.306;2022-09-09T14:35:30;5.77;;;1.10;;
73454;SDS011;61690;51.824;6.306;2022-09-09T14:37:58;5.20;;;1.20;;
73454;SDS011;61690;51.824;6.306;2022-09-09T14:40:24;5.83;;;1.57;;
73454;SDS011;61690;51.824;6.306;2022-09-09T14:42:49;8.53;;;1.57;;
73454;SDS011;61690;51.824;6.306;2022-09-09T14:45:14;5.67;;;1.20;;
73454;SDS011;61690;51.824;6.306;2022-09-09T14:47:39;7.80;;;1.70;;
73454;SDS011;61690;51.824;6.306;2022-09-09T14:50:05;6.30;;;1.33;;
73454;SDS011;61690;51.824;6.306;2022-09-09T14:52:31;7.17;;;1.23;;
73454;SDS011;61690;51.824;6.306;2022-09-09T14:54:56;7.40;;;1.23;;
73454;SDS011;61690;51.824;6.306;2022-09-09T14:57:22;6.57;;;1.10;;
73454;SDS011;61690;51.824;6.306;2022-09-09T14:59:47;6.23;;;1.13;;
73454;SDS011;61690;51.824;6.306;2022-09-09T15:02:14;6.53;;;1.10;;
73454;SDS011;61690;51.824;6.306;2022-09-09T15:04:41;6.68;;;1.08;;
73454;SDS011;61690;51.824;6.306;2022-09-09T15:07:06;6.50;;;1.07;;
73454;SDS011;61690;51.824;6.306;2022-09-09T15:09:31;5.93;;;1.07;;
73454;SDS011;61690;51.824;6.306;2022-09-09T15:11:57;4.93;;;1.00;;
73454;SDS011;61690;51.824;6.306;2022-09-09T15:14:22;6.00;;;1.23;;
73454;SDS011;61690;51.824;6.306;2022-09-09T15:16:47;5.20;;;1.20;;
73454;SDS011;61690;51.824;6.306;2022-09-09T15:19:13;4.68;;;1.02;;
73454;SDS011;61690;51.824;6.306;2022-09-09T15:21:38;5.23;;;1.10;;
73454;SDS011;61690;51.824;6.306;2022-09-09T15:24:04;6.17;;;1.20;;
73454;SDS011;61690;51.824;6.306;2022-09-09T15:26:32;6.60;;;1.20;;
73454;SDS011;61690;51.824;6.306;2022-09-09T15:28:57;6.77;;;1.13;;
73454;SDS011;61690;51.824;6.306;2022-09-09T15:31:26;5.28;;;1.10;;
73454;SDS011;61690;51.824;6.306;2022-09-09T15:33:57;5.63;;;1.35;;
73454;SDS011;61690;51.824;6.306;2022-09-09T15:36:27;5.22;;;1.10;;
73454;SDS011;61690;51.824;6.306;2022-09-09T15:38:56;4.37;;;1.10;;
73454;SDS011;61690;51.824;6.306;2022-09-09T15:41:23;5.68;;;1.50;;
73454;SDS011;61690;51.824;6.306;2022-09-09T15:43:49;6.47;;;1.10;;
73454;SDS011;61690;51.824;6.306;2022-09-09T15:48:42;4.87;;;1.23;;
73454;SDS011;61690;51.824;6.306;2022-09-09T15:51:09;6.03;;;1.00;;
73454;SDS011;61690;51.824;6.306;2022-09-09T15:53:36;6.10;;;1.10;;
73454;SDS011;61690;51.824;6.306;2022-09-09T15:56:05;5.25;;;1.25;;
73454;SDS011;61690;51.824;6.306;2022-09-09T15:58:34;4.87;;;1.23;;
73454;SDS011;61690;51.824;6.306;2022-09-09T16:03:50;5.55;;;1.42;;
73454;SDS011;61690;51.824;6.306;2022-09-09T16:06:19;5.75;;;1.42;;
73454;SDS011;61690;51.824;6.306;2022-09-09T16:08:47;5.70;;;1.30;;
73454;SDS011;61690;51.824;6.306;2022-09-09T16:11:19;4.50;;;1.23;;
73454;SDS011;61690;51.824;6.306;2022-09-09T16:13:50;5.35;;;1.40;;
73454;SDS011;61690;51.824;6.306;2022-09-09T16:16:18;4.65;;;1.38;;
73454;SDS011;61690;51.824;6.306;2022-09-09T16:18:47;6.22;;;1.27;;
73454;SDS011;61690;51.824;6.306;2022-09-09T16:21:16;5.72;;;1.40;;
73454;SDS011;61690;51.824;6.306;2022-09-09T16:23:54;5.33;;;1.30;;
73454;SDS011;61690;51.824;6.306;2022-09-09T16:26:20;6.18;;;1.40;;
73454;SDS011;61690;51.824;6.306;2022-09-09T16:28:46;6.38;;;1.38;;
73454;SDS011;61690;51.824;6.306;2022-09-09T16:31:19;7.70;;;1.30;;
73454;SDS011;61690;51.824;6.306;2022-09-09T16:33:47;4.72;;;1.45;;
73454;SDS011;61690;51.824;6.306;2022-09-09T16:36:15;4.57;;;1.30;;
73454;SDS011;61690;51.824;6.306;2022-09-09T16:38:42;5.10;;;1.52;;
73454;SDS011;61690;51.824;6.306;2022-09-09T16:41:08;5.37;;;1.47;;
73454;SDS011;61690;51.824;6.306;2022-09-09T16:43:35;5.30;;;1.60;;
73454;SDS011;61690;51.824;6.306;2022-09-09T16:46:02;5.95;;;1.40;;
73454;SDS011;61690;51.824;6.306;2022-09-09T16:48:32;5.22;;;1.23;;
73454;SDS011;61690;51.824;6.306;2022-09-09T16:51:05;4.93;;;1.40;;
73454;SDS011;61690;51.824;6.306;2022-09-09T16:53:32;5.75;;;1.80;;
73454;SDS011;61690;51.824;6.306;2022-09-09T16:55:58;7.85;;;1.80;;
73454;SDS011;61690;51.824;6.306;2022-09-09T16:58:29;7.13;;;1.77;;
73454;SDS011;61690;51.824;6.306;2022-09-09T17:00:58;10.02;;;1.98;;
73454;SDS011;61690;51.824;6.306;2022-09-09T17:03:24;5.93;;;1.40;;
73454;SDS011;61690;51.824;6.306;2022-09-09T17:05:50;5.87;;;1.33;;
73454;SDS011;61690;51.824;6.306;2022-09-09T17:08:15;6.30;;;1.30;;
73454;SDS011;61690;51.824;6.306;2022-09-09T17:10:41;5.07;;;1.30;;
73454;SDS011;61690;51.824;6.306;2022-09-09T17:13:07;5.30;;;1.05;;
73454;SDS011;61690;51.824;6.306;2022-09-09T17:15:32;6.67;;;1.47;;
73454;SDS011;61690;51.824;6.306;2022-09-09T17:17:59;5.80;;;1.30;;
73454;SDS011;61690;51.824;6.306;2022-09-09T17:20:25;5.38;;;1.40;;
73454;SDS011;61690;51.824;6.306;2022-09-09T17:22:50;5.50;;;1.30;;
73454;SDS011;61690;51.824;6.306;2022-09-09T17:25:15;4.87;;;1.27;;
73454;SDS011;61690;51.824;6.306;2022-09-09T17:27:42;5.60;;;1.30;;
73454;SDS011;61690;51.824;6.306;2022-09-09T17:30:07;5.47;;;1.30;;
73454;SDS011;61690;51.824;6.306;2022-09-09T17:32:34;7.40;;;1.40;;
73454;SDS011;61690;51.824;6.306;2022-09-09T17:35:00;5.93;;;1.42;;
73454;SDS011;61690;51.824;6.306;2022-09-09T17:37:26;5.37;;;1.10;;
73454;SDS011;61690;51.824;6.306;2022-09-09T17:39:51;6.68;;;1.35;;